Time;durP1;ratioP1;P1;durP2;ratioP2;P2;SDS_P1;SDS_P2;PMS_P1;PMS_P2;Temp;Humidity;BMP_temperature;BMP_pressure;BME280_temperature;BME280_humidity;BME280_pressure;Samples;Min_cycle;Max_cycle;Signal;HPM_P1;HPM_P2
2022/07/23 00:00:49;;;;;;;2.85;1.30;;;;;;;16.27;71.58;101893.44;5038797;28;20064;-34
2022/07/23 00:03:14;;;;;;;3.47;1.45;;;;;;;16.34;71.36;101885.38;5037725;28;20109;-36
2022/07/23 00:05:40;;;;;;;4.57;1.90;;;;;;;16.33;71.13;101876.41;5037918;28;20040;-36
2022/07/23 00:08:06;;;;;;;5.95;1.55;;;;;;;16.32;71.30;101869.25;5037646;28;20025;-37
2022/07/23 00:10:32;;;;;;;9.23;1.60;;;;;;;16.33;71.51;101865.53;5037731;28;20032;-36
2022/07/23 00:12:57;;;;;;;3.20;1.58;;;;;;;16.30;71.77;101860.50;5038961;28;20029;-36
2022/07/23 00:15:23;;;;;;;3.67;1.63;;;;;;;16.24;72.02;101859.41;5038394;28;20580;-34
2022/07/23 00:17:48;;;;;;;11.30;1.80;;;;;;;16.17;72.21;101863.09;5038971;28;20064;-35
2022/07/23 00:20:14;;;;;;;2.53;1.33;;;;;;;16.16;72.57;101858.66;5038820;28;20021;-36
2022/07/23 00:22:49;;;;;;;6.28;1.60;;;;;;;16.16;72.42;101858.66;5038835;28;20032;-35
2022/07/23 00:25:14;;;;;;;4.53;1.60;;;;;;;16.09;72.77;101863.19;5038430;28;20078;-37
2022/07/23 00:27:40;;;;;;;8.23;1.65;;;;;;;16.02;72.94;101863.97;5039815;28;20033;-34
2022/07/23 00:30:06;;;;;;;4.32;1.67;;;;;;;15.99;73.07;101861.63;5042169;28;20041;-34
2022/07/23 00:32:31;;;;;;;4.35;1.30;;;;;;;15.91;73.58;101861.78;5042474;28;20428;-34
2022/07/23 00:34:56;;;;;;;4.85;1.75;;;;;;;15.92;73.56;101858.00;5042117;28;20120;-37
2022/07/23 00:37:22;;;;;;;3.10;1.77;;;;;;;15.91;73.86;101855.50;5042477;28;20029;-38
2022/07/23 00:39:47;;;;;;;5.82;2.13;;;;;;;15.92;73.94;101851.75;5041975;28;20025;-34
2022/07/23 00:42:12;;;;;;;3.33;1.58;;;;;;;15.88;74.21;101855.88;5043028;28;20052;-36
2022/07/23 00:44:38;;;;;;;3.55;1.75;;;;;;;15.86;74.27;101853.34;5042436;28;20049;-36
2022/07/23 00:47:05;;;;;;;4.47;1.70;;;;;;;15.83;74.60;101853.75;5042170;28;20044;-35
2022/07/23 00:49:30;;;;;;;4.60;1.65;;;;;;;15.78;74.72;101857.03;5042420;28;20075;-36
2022/07/23 00:51:56;;;;;;;3.72;1.83;;;;;;;15.75;74.87;101846.56;5042110;28;20025;-34
2022/07/23 00:54:24;;;;;;;4.13;1.50;;;;;;;15.73;75.18;101845.06;5042516;28;20390;-36
2022/07/23 00:56:49;;;;;;;3.20;1.63;;;;;;;15.78;75.04;101851.59;5042507;28;20083;-36
2022/07/23 00:59:14;;;;;;;3.38;1.67;;;;;;;15.80;75.07;101843.28;5041650;28;20053;-38
2022/07/23 01:01:41;;;;;;;8.77;2.05;;;;;;;15.77;75.25;101846.34;5042170;28;20048;-37
2022/07/23 01:04:06;;;;;;;7.47;2.78;;;;;;;15.77;75.50;101844.50;5041772;28;20242;-35
2022/07/23 01:06:37;;;;;;;4.75;1.80;;;;;;;15.74;75.61;101844.03;5041657;28;20448;-36
2022/07/23 01:09:04;;;;;;;2.65;1.42;;;;;;;15.72;76.13;101844.22;5041781;28;20029;-34
2022/07/23 01:11:30;;;;;;;2.10;1.60;;;;;;;15.76;76.29;101839.25;5040845;28;20064;-35
2022/07/23 01:13:55;;;;;;;2.88;2.00;;;;;;;15.79;76.20;101841.56;5041884;28;20053;-34
2022/07/23 01:16:20;;;;;;;8.52;2.00;;;;;;;15.75;76.61;101846.56;5040447;28;20208;-38
2022/07/23 01:18:46;;;;;;;3.42;1.70;;;;;;;15.73;76.83;101853.22;5039665;28;20033;-36
2022/07/23 01:21:15;;;;;;;5.68;2.00;;;;;;;15.70;77.22;101845.47;5038278;28;20034;-38
2022/07/23 01:23:40;;;;;;;5.78;1.88;;;;;;;15.67;77.10;101852.06;5039943;28;20053;-37
2022/07/23 01:26:06;;;;;;;8.73;2.10;;;;;;;15.57;77.53;101848.81;5019987;28;20068;-37
2022/07/23 01:28:31;;;;;;;5.18;2.20;;;;;;;15.47;78.06;101853.69;5038657;28;20033;-38
2022/07/23 01:30:56;;;;;;;3.20;2.00;;;;;;;15.39;78.38;101838.38;5038549;28;20017;-37
2022/07/23 01:33:22;;;;;;;6.20;2.28;;;;;;;15.36;79.09;101846.88;5041691;28;20030;-37
2022/07/23 01:35:47;;;;;;;5.38;2.10;;;;;;;15.31;79.43;101846.59;5041223;28;20048;-36
2022/07/23 01:38:13;;;;;;;5.88;2.17;;;;;;;15.29;79.88;101845.94;5041401;28;20033;-35
2022/07/23 01:40:38;;;;;;;4.50;2.08;;;;;;;15.28;79.79;101849.72;5040736;28;20032;-35
2022/07/23 01:43:03;;;;;;;6.82;2.00;;;;;;;15.23;80.27;101839.41;5042228;28;20160;-35
2022/07/23 01:45:29;;;;;;;6.35;2.58;;;;;;;15.17;79.97;101847.47;5041031;28;20024;-35
2022/07/23 01:47:54;;;;;;;2.65;1.88;;;;;;;15.10;80.20;101842.78;5041115;28;20044;-35
2022/07/23 01:50:20;;;;;;;3.60;2.10;;;;;;;15.04;80.27;101842.72;5041583;28;20037;-39
2022/07/23 01:52:45;;;;;;;5.18;1.80;;;;;;;14.96;80.68;101840.94;5041857;28;20037;-35
2022/07/23 01:55:10;;;;;;;4.93;2.40;;;;;;;14.89;81.14;101838.09;5041835;28;20516;-36
2022/07/23 01:57:36;;;;;;;5.97;2.47;;;;;;;14.87;81.37;101842.88;5040602;28;20033;-35
2022/07/23 02:00:02;;;;;;;6.25;1.83;;;;;;;14.85;82.00;101835.94;5041037;28;20035;-36
2022/07/23 02:02:27;;;;;;;5.50;2.20;;;;;;;14.85;82.33;101841.38;5040244;28;20033;-38
2022/07/23 02:04:52;;;;;;;5.10;2.20;;;;;;;14.90;82.41;101830.81;5040988;28;20037;-35
2022/07/23 02:07:18;;;;;;;4.68;1.90;;;;;;;14.90;81.93;101836.22;5040088;28;20033;-37
2022/07/23 02:09:43;;;;;;;5.13;2.38;;;;;;;14.88;82.25;101838.31;5040925;28;20032;-36
2022/07/23 02:12:08;;;;;;;4.60;2.63;;;;;;;14.83;82.57;101840.75;5040623;28;20033;-34
2022/07/23 02:14:34;;;;;;;9.57;2.40;;;;;;;14.82;82.78;101839.03;5023330;28;20044;-35
2022/07/23 02:16:59;;;;;;;5.97;2.30;;;;;;;14.80;82.65;101830.28;5040244;28;20061;-34
2022/07/23 02:19:25;;;;;;;2.50;2.30;;;;;;;14.83;82.53;101838.03;5040032;28;20025;-34
2022/07/23 02:21:50;;;;;;;6.85;2.65;;;;;;;14.86;82.11;101834.94;5040363;28;20021;-35
2022/07/23 02:24:16;;;;;;;5.75;2.03;;;;;;;14.81;82.54;101837.38;5040449;28;20040;-34
2022/07/23 02:26:41;;;;;;;7.00;2.40;;;;;;;14.77;82.99;101842.31;5040114;28;20053;-34
2022/07/23 02:29:07;;;;;;;5.90;2.30;;;;;;;14.75;83.58;101838.13;5039854;28;20350;-35
2022/07/23 02:31:33;;;;;;;3.72;2.08;;;;;;;14.80;83.23;101841.13;5040166;28;20049;-34
2022/07/23 02:33:58;;;;;;;4.63;2.30;;;;;;;14.83;82.78;101835.31;5040565;28;20040;-36
2022/07/23 02:36:23;;;;;;;3.85;2.00;;;;;;;14.85;82.41;101836.81;5040510;28;20045;-35
2022/07/23 02:38:49;;;;;;;8.63;2.40;;;;;;;14.82;82.53;101839.88;5040624;28;20022;-36
2022/07/23 02:41:14;;;;;;;5.35;2.25;;;;;;;14.81;82.59;101832.78;5040825;28;20079;-35
2022/07/23 02:43:40;;;;;;;5.07;2.10;;;;;;;14.89;82.45;101839.97;5040343;28;20053;-37
2022/07/23 02:46:05;;;;;;;5.78;2.50;;;;;;;14.97;81.53;101837.19;5039966;28;20377;-36
2022/07/23 02:48:30;;;;;;;6.38;3.17;;;;;;;14.92;81.58;101835.00;5039688;28;20064;-36
2022/07/23 02:50:56;;;;;;;3.50;2.20;;;;;;;14.95;81.59;101838.38;5039712;28;20469;-35
2022/07/23 02:53:25;;;;;;;6.07;2.33;;;;;;;14.92;81.56;101837.72;5023220;28;20033;-34
2022/07/23 02:55:51;;;;;;;4.35;2.15;;;;;;;14.87;81.88;101833.91;5022722;28;20414;-36
2022/07/23 02:58:16;;;;;;;3.85;2.50;;;;;;;14.84;81.92;101835.09;5022823;28;20061;-35
2022/07/23 03:00:41;;;;;;;5.47;2.20;;;;;;;14.84;82.17;101839.69;5040028;28;20024;-37
2022/07/23 03:03:07;;;;;;;3.47;2.17;;;;;;;14.80;82.32;101841.13;5040839;28;20064;-37
2022/07/23 03:05:33;;;;;;;7.35;2.03;;;;;;;14.78;82.35;101835.88;5039281;28;20033;-35
2022/07/23 03:07:58;;;;;;;7.25;2.33;;;;;;;14.83;81.94;101846.16;5040384;28;20047;-38
2022/07/23 03:10:24;;;;;;;3.92;2.17;;;;;;;14.75;81.89;101838.13;5040424;28;20021;-35
2022/07/23 03:12:49;;;;;;;7.28;2.35;;;;;;;14.66;82.36;101831.91;5022191;28;20033;-35
2022/07/23 03:15:14;;;;;;;6.82;2.50;;;;;;;14.60;83.01;101833.50;5040638;28;20041;-37
2022/07/23 03:17:40;;;;;;;8.25;2.53;;;;;;;14.57;83.29;101835.75;5040483;28;20030;-37
2022/07/23 03:20:06;;;;;;;8.32;2.05;;;;;;;14.53;83.77;101835.25;5039571;28;20475;-36
2022/07/23 03:22:31;;;;;;;9.18;2.20;;;;;;;14.52;84.33;101843.53;5040196;28;20025;-35
2022/07/23 03:24:57;;;;;;;4.68;2.20;;;;;;;14.49;84.51;101845.59;5022550;28;20481;-38
2022/07/23 03:27:23;;;;;;;5.03;2.40;;;;;;;14.48;84.61;101848.47;5040789;28;20051;-36
2022/07/23 03:29:50;;;;;;;4.53;2.30;;;;;;;14.46;84.56;101843.25;5039825;28;20025;-35
2022/07/23 03:32:15;;;;;;;3.50;2.28;;;;;;;14.45;84.78;101848.84;5040179;28;20029;-35
2022/07/23 03:34:41;;;;;;;4.68;2.50;;;;;;;14.42;84.73;101849.22;5039658;28;20104;-36
2022/07/23 03:37:06;;;;;;;5.50;2.72;;;;;;;14.40;84.94;101854.81;5039843;28;20029;-38
2022/07/23 03:39:31;;;;;;;5.88;2.08;;;;;;;14.37;84.87;101852.47;5039647;28;20049;-33
2022/07/23 03:41:57;;;;;;;8.07;2.53;;;;;;;14.34;85.13;101857.41;5040665;28;20025;-37
2022/07/23 03:44:22;;;;;;;3.88;2.00;;;;;;;14.30;85.44;101851.53;5041156;28;20038;-34
2022/07/23 03:46:48;;;;;;;4.88;2.40;;;;;;;14.23;85.54;101867.63;5040386;28;20513;-34
2022/07/23 03:49:13;;;;;;;5.65;2.30;;;;;;;14.18;86.17;101864.63;5040244;28;20109;-35
2022/07/23 03:51:38;;;;;;;5.22;2.53;;;;;;;14.20;86.42;101868.00;5040545;28;20064;-37
2022/07/23 03:54:04;;;;;;;4.03;2.50;;;;;;;14.19;86.08;101865.47;5040431;28;20035;-36
2022/07/23 03:56:29;;;;;;;6.32;2.60;;;;;;;14.17;86.12;101862.13;5040162;28;20032;-35
2022/07/23 03:58:55;;;;;;;5.07;2.63;;;;;;;14.17;86.48;101856.72;5040256;28;20033;-35
2022/07/23 04:01:20;;;;;;;4.60;2.47;;;;;;;14.18;86.87;101861.09;5022498;28;20033;-34
2022/07/23 04:03:46;;;;;;;6.03;2.65;;;;;;;14.21;87.16;101869.69;5026222;28;20196;-37
2022/07/23 04:06:12;;;;;;;9.80;2.53;;;;;;;14.23;87.42;101877.63;5044064;28;20025;-36
2022/07/23 04:08:37;;;;;;;5.88;2.28;;;;;;;14.22;87.09;101875.97;5044356;28;20026;-35
2022/07/23 04:11:02;;;;;;;5.30;2.42;;;;;;;14.22;87.42;101876.78;5043928;28;20339;-36
2022/07/23 04:13:28;;;;;;;6.10;2.90;;;;;;;14.26;87.48;101872.69;5043320;28;20021;-36
2022/07/23 04:15:53;;;;;;;5.85;2.50;;;;;;;14.34;87.49;101870.94;5024703;28;20116;-37
2022/07/23 04:18:18;;;;;;;7.00;2.50;;;;;;;14.42;86.98;101870.88;5042619;28;20037;-38
2022/07/23 04:20:44;;;;;;;7.72;2.50;;;;;;;14.41;86.41;101867.34;5042260;28;20025;-37
2022/07/23 04:23:10;;;;;;;6.63;2.67;;;;;;;14.43;86.47;101872.59;5040716;28;20021;-38
2022/07/23 04:25:35;;;;;;;4.25;2.22;;;;;;;14.45;86.88;101871.34;5041643;28;20047;-38
2022/07/23 04:28:01;;;;;;;3.00;2.33;;;;;;;14.51;86.99;101867.09;5042044;28;20021;-39
2022/07/23 04:30:27;;;;;;;5.63;2.47;;;;;;;14.54;86.89;101869.47;5041420;28;20033;-37
2022/07/23 04:32:52;;;;;;;3.72;2.20;;;;;;;14.56;86.65;101864.72;5041487;28;20033;-36
2022/07/23 04:35:17;;;;;;;7.53;2.35;;;;;;;14.57;86.26;101860.97;5024114;28;20484;-35
2022/07/23 04:37:43;;;;;;;6.97;2.40;;;;;;;14.58;86.23;101859.91;5043384;28;20025;-34
2022/07/23 04:40:09;;;;;;;6.25;2.58;;;;;;;14.60;86.10;101862.47;5043301;28;20060;-34
2022/07/23 04:42:34;;;;;;;5.90;2.55;;;;;;;14.60;86.12;101866.00;5025334;28;20384;-36
2022/07/23 04:44:59;;;;;;;6.38;2.38;;;;;;;14.61;86.18;101865.00;5042873;28;20034;-35
2022/07/23 04:47:25;;;;;;;5.35;2.33;;;;;;;14.61;86.19;101867.72;5042795;28;20097;-36
2022/07/23 04:49:50;;;;;;;7.15;2.80;;;;;;;14.61;86.06;101864.13;5041960;28;20034;-35
2022/07/23 04:52:16;;;;;;;3.05;2.45;;;;;;;14.62;86.35;101869.38;5024234;28;20100;-39
2022/07/23 04:54:41;;;;;;;5.00;2.50;;;;;;;14.68;86.73;101867.81;5041889;28;20021;-34
2022/07/23 04:57:06;;;;;;;3.90;2.80;;;;;;;14.70;86.94;101865.75;5042037;28;20029;-36
2022/07/23 04:59:32;;;;;;;5.32;2.63;;;;;;;14.71;86.70;101875.56;5042736;28;20040;-35
2022/07/23 05:01:57;;;;;;;5.65;3.00;;;;;;;14.72;86.83;101882.69;5041804;28;20021;-35
2022/07/23 05:04:22;;;;;;;4.68;2.70;;;;;;;14.78;87.10;101881.94;5041703;28;20439;-36
2022/07/23 05:06:47;;;;;;;10.10;2.95;;;;;;;14.82;86.80;101887.81;5041557;28;20040;-36
2022/07/23 05:09:13;;;;;;;11.85;3.25;;;;;;;14.85;86.12;101884.72;5022204;28;20288;-38
2022/07/23 05:11:38;;;;;;;10.57;3.42;;;;;;;14.99;85.96;101878.50;5041795;28;20036;-33
2022/07/23 05:14:04;;;;;;;4.68;3.40;;;;;;;15.19;85.54;101884.19;5042024;28;20026;-34
2022/07/23 05:16:29;;;;;;;5.65;3.65;;;;;;;15.37;84.70;101881.09;5041762;28;20040;-35
2022/07/23 05:18:54;;;;;;;4.78;2.95;;;;;;;15.50;84.03;101875.03;5042208;28;20021;-36
2022/07/23 05:21:20;;;;;;;10.68;3.72;;;;;;;15.53;82.92;101880.94;5042162;28;20033;-38
2022/07/23 05:23:45;;;;;;;6.22;3.40;;;;;;;15.69;82.88;101889.91;5042503;28;20025;-36
2022/07/23 05:26:10;;;;;;;6.97;3.08;;;;;;;15.82;82.31;101881.91;5041739;28;20038;-35
2022/07/23 05:28:36;;;;;;;8.75;3.38;;;;;;;16.01;80.88;101886.72;5040905;28;20057;-34
2022/07/23 05:31:01;;;;;;;9.68;3.10;;;;;;;16.11;78.25;101883.69;5040918;28;20029;-38
2022/07/23 05:33:27;;;;;;;9.75;3.40;;;;;;;16.23;78.19;101886.75;5039833;28;20112;-35
2022/07/23 05:35:52;;;;;;;11.15;3.00;;;;;;;16.33;77.85;101887.25;5039227;28;20065;-36
2022/07/23 05:38:17;;;;;;;9.52;3.25;;;;;;;16.43;77.33;101878.78;5039501;28;20030;-36
2022/07/23 05:40:43;;;;;;;8.05;3.03;;;;;;;16.68;76.75;101890.91;5039222;28;20019;-38
2022/07/23 05:43:08;;;;;;;6.10;2.70;;;;;;;16.88;74.90;101893.81;5038413;28;20041;-37
2022/07/23 05:45:33;;;;;;;5.25;2.10;;;;;;;16.99;74.62;101895.16;5040510;28;20021;-37
2022/07/23 05:47:58;;;;;;;6.88;3.15;;;;;;;17.00;74.47;101895.97;5040506;28;20083;-36
2022/07/23 05:50:24;;;;;;;8.98;2.55;;;;;;;17.26;73.73;101898.03;5040951;28;20082;-38
2022/07/23 05:52:49;;;;;;;6.07;2.40;;;;;;;17.24;72.68;101895.50;5023569;28;20056;-35
2022/07/23 05:55:15;;;;;;;5.03;2.08;;;;;;;17.45;72.29;101891.00;5040681;28;20029;-38
2022/07/23 05:57:41;;;;;;;8.40;2.72;;;;;;;17.46;71.22;101900.88;5040484;28;20061;-36
2022/07/23 06:00:07;;;;;;;3.45;1.73;;;;;;;17.47;71.21;101899.81;5040594;28;20025;-35
2022/07/23 06:02:32;;;;;;;3.65;2.00;;;;;;;17.42;71.71;101896.84;5039075;28;20029;-39
2022/07/23 06:04:58;;;;;;;9.38;2.70;;;;;;;17.20;72.56;101898.84;5038518;28;20026;-37
2022/07/23 06:07:23;;;;;;;5.53;2.22;;;;;;;17.06;72.71;101909.63;5038132;28;20092;-37
2022/07/23 06:09:49;;;;;;;8.77;2.00;;;;;;;16.96;73.32;101909.16;5039097;28;20030;-34
2022/07/23 06:12:15;;;;;;;6.88;2.20;;;;;;;17.00;73.07;101910.41;5041519;28;20034;-36
2022/07/23 06:14:40;;;;;;;6.70;2.00;;;;;;;17.22;73.34;101908.47;5042987;28;20033;-37
2022/07/23 06:17:06;;;;;;;3.25;2.00;;;;;;;17.33;71.88;101902.47;5043411;28;20017;-35
2022/07/23 06:19:31;;;;;;;6.75;1.75;;;;;;;17.61;71.59;101896.09;5027301;28;20056;-35
2022/07/23 06:21:56;;;;;;;4.30;1.60;;;;;;;17.84;69.33;101895.81;5043915;28;20022;-36
2022/07/23 06:24:22;;;;;;;10.13;1.67;;;;;;;18.33;69.75;101893.84;5044475;28;20093;-34
2022/07/23 06:26:47;;;;;;;15.88;2.33;;;;;;;19.21;66.95;101888.13;5046775;28;20025;-35
2022/07/23 06:29:12;;;;;;;13.05;1.73;;;;;;;20.17;63.90;101890.06;5046977;28;20033;-37
2022/07/23 06:31:38;;;;;;;4.05;1.35;;;;;;;21.33;59.44;101898.72;5044695;28;20433;-35
2022/07/23 06:34:03;;;;;;;5.13;1.58;;;;;;;22.05;56.06;101899.72;5026952;28;20025;-35
2022/07/23 06:36:29;;;;;;;10.95;1.70;;;;;;;22.77;52.95;101909.81;5044131;28;20045;-34
2022/07/23 06:38:54;;;;;;;5.43;1.45;;;;;;;23.25;51.23;101908.78;5043220;28;20098;-36
2022/07/23 06:41:19;;;;;;;1.95;1.13;;;;;;;23.84;48.60;101909.47;5043682;28;20032;-37
2022/07/23 06:43:45;;;;;;;2.53;1.13;;;;;;;24.01;48.89;101903.19;5043845;28;20026;-36
2022/07/23 06:46:10;;;;;;;4.82;1.33;;;;;;;24.19;47.63;101904.91;5043586;28;20029;-37
2022/07/23 06:48:36;;;;;;;5.20;1.33;;;;;;;23.98;46.53;101906.44;5026507;28;20136;-38
2022/07/23 06:51:02;;;;;;;5.22;1.80;;;;;;;23.94;48.51;101892.34;5043199;28;20140;-36
2022/07/23 06:53:28;;;;;;;5.17;1.23;;;;;;;24.11;47.18;101903.38;5047629;28;20029;-35
2022/07/23 06:55:53;;;;;;;2.35;0.95;;;;;;;24.15;47.75;101903.75;5047481;28;20462;-36
2022/07/23 06:58:20;;;;;;;3.97;1.20;;;;;;;24.43;47.82;101908.34;5047878;28;20076;-35
2022/07/23 07:00:45;;;;;;;3.28;1.25;;;;;;;24.72;46.76;101921.00;5048138;28;20562;-34
2022/07/23 07:03:10;;;;;;;1.75;0.90;;;;;;;25.42;44.84;101924.25;5030800;28;20029;-34
2022/07/23 07:05:36;;;;;;;5.40;1.27;;;;;;;25.76;43.02;101918.59;5048586;28;20030;-36
2022/07/23 07:08:01;;;;;;;4.40;1.08;;;;;;;25.90;43.70;101930.91;5047920;28;20037;-36
2022/07/23 07:10:27;;;;;;;2.70;1.15;;;;;;;25.99;42.59;101932.13;5047816;28;20025;-35
2022/07/23 07:12:52;;;;;;;4.45;1.30;;;;;;;25.36;43.82;101928.03;5046588;28;20041;-36
2022/07/23 07:15:17;;;;;;;2.92;1.10;;;;;;;26.31;41.29;101925.00;5047331;28;20085;-37
2022/07/23 07:17:44;;;;;;;4.25;1.27;;;;;;;26.46;41.33;101928.75;5046755;28;20033;-36
2022/07/23 07:20:10;;;;;;;5.33;1.50;;;;;;;26.74;41.75;101935.06;5047367;28;20128;-37
2022/07/23 07:22:35;;;;;;;3.70;1.20;;;;;;;26.68;41.48;101931.44;5048160;28;20032;-37
2022/07/23 07:25:01;;;;;;;3.25;1.15;;;;;;;27.56;39.22;101930.06;5047099;28;20025;-36
2022/07/23 07:27:26;;;;;;;11.35;1.20;;;;;;;27.84;38.45;101931.59;5046250;28;20132;-35
2022/07/23 07:29:51;;;;;;;1.55;0.77;;;;;;;28.05;37.69;101939.97;5045271;28;20045;-39
2022/07/23 07:32:17;;;;;;;2.65;1.02;;;;;;;27.83;38.32;101940.16;5044286;28;20029;-36
2022/07/23 07:34:42;;;;;;;2.10;1.00;;;;;;;27.93;37.92;101946.53;5042709;28;20033;-34
2022/07/23 07:37:08;;;;;;;4.68;1.30;;;;;;;27.69;38.88;101942.56;5044528;28;20044;-36
2022/07/23 07:39:33;;;;;;;8.75;1.50;;;;;;;27.79;38.69;101934.31;5045963;28;20188;-34
2022/07/23 07:41:58;;;;;;;5.72;1.40;;;;;;;28.64;36.19;101940.31;5045672;28;20094;-35
2022/07/23 07:44:24;;;;;;;6.00;1.30;;;;;;;28.62;36.79;101941.69;5027946;28;20025;-35
2022/07/23 07:46:49;;;;;;;3.67;1.38;;;;;;;28.00;38.38;101936.06;5045620;28;20036;-38
2022/07/23 07:49:17;;;;;;;3.72;1.33;;;;;;;28.72;36.85;101938.94;5045171;28;20036;-35
2022/07/23 07:51:42;;;;;;;5.15;1.20;;;;;;;28.94;36.16;101943.34;5045444;28;20049;-34
2022/07/23 07:54:07;;;;;;;4.20;1.23;;;;;;;29.08;35.85;101945.28;5044573;28;20044;-38
2022/07/23 07:56:33;;;;;;;3.53;0.95;;;;;;;29.09;35.30;101951.66;5044471;28;20037;-36
2022/07/23 07:58:58;;;;;;;5.43;1.40;;;;;;;29.29;34.63;101948.84;5043912;28;20034;-35
2022/07/23 08:01:23;;;;;;;3.27;1.00;;;;;;;28.45;36.78;101945.56;5024125;28;20037;-36
2022/07/23 08:03:49;;;;;;;3.92;1.38;;;;;;;28.53;36.24;101948.91;5041841;28;20103;-35
2022/07/23 08:06:14;;;;;;;4.90;1.52;;;;;;;28.63;36.38;101955.28;5043050;28;20539;-35
2022/07/23 08:08:39;;;;;;;4.32;1.50;;;;;;;29.52;34.60;101955.72;5042701;28;20039;-36
2022/07/23 08:11:05;;;;;;;3.08;1.25;;;;;;;29.00;35.44;101961.63;5042818;28;20045;-35
2022/07/23 08:13:30;;;;;;;4.03;1.40;;;;;;;28.84;35.22;101961.66;5043243;28;20056;-36
2022/07/23 08:15:55;;;;;;;7.00;1.80;;;;;;;28.37;35.79;101959.09;5042958;28;20064;-39
2022/07/23 08:18:21;;;;;;;6.03;1.50;;;;;;;29.20;34.47;101955.25;5042130;28;20030;-35
2022/07/23 08:20:46;;;;;;;3.83;1.00;;;;;;;29.62;33.54;101965.09;5024001;28;20488;-34
2022/07/23 08:23:12;;;;;;;5.13;2.00;;;;;;;28.70;34.66;101965.25;5041772;28;20036;-35
2022/07/23 08:25:39;;;;;;;3.15;1.20;;;;;;;28.14;36.30;101965.97;5042881;28;20032;-37
2022/07/23 08:28:05;;;;;;;;;;;;;;;28.15;37.56;101960.19;5043146;28;20018;-36
2022/07/23 08:30:31;;;;;;;5.47;1.42;;;;;;;29.73;34.08;101961.22;5042326;28;19913;-37
2022/07/23 08:33:00;;;;;;;3.03;1.33;;;;;;;29.86;34.89;101956.97;5040209;28;20026;-36
2022/07/23 08:35:30;;;;;;;3.38;1.45;;;;;;;30.64;32.15;101958.97;5040113;28;20292;-35
2022/07/23 08:37:56;;;;;;;4.88;1.30;;;;;;;30.63;32.94;101960.13;5040233;28;20152;-35
2022/07/23 08:40:22;;;;;;;4.75;1.75;;;;;;;30.34;32.99;101960.88;5040468;28;20026;-38
2022/07/23 08:42:49;;;;;;;5.20;1.77;;;;;;;30.13;33.55;101967.66;5039522;28;20396;-35
2022/07/23 08:45:20;;;;;;;4.97;1.48;;;;;;;30.02;34.07;101966.03;5040965;28;20018;-36
2022/07/23 08:47:48;;;;;;;6.90;1.65;;;;;;;29.89;33.78;101960.03;5041332;28;20049;-37
2022/07/23 08:50:14;;;;;;;4.68;1.67;;;;;;;29.84;33.72;101965.59;5028180;28;20039;-36
2022/07/23 08:52:40;;;;;;;3.83;1.53;;;;;;;30.19;32.68;101961.78;5045571;28;20503;-37
2022/07/23 08:55:06;;;;;;;4.97;1.60;;;;;;;29.99;33.41;101964.69;5045272;28;20022;-36
2022/07/23 08:57:31;;;;;;;4.80;1.63;;;;;;;30.46;32.11;101965.25;5027486;28;20044;-38
2022/07/23 08:59:57;;;;;;;11.27;2.00;;;;;;;30.23;32.63;101970.41;5027000;28;20576;-37
2022/07/23 09:02:22;;;;;;;3.93;1.27;;;;;;;30.11;33.50;101967.13;5043688;28;20610;-35
2022/07/23 09:04:48;;;;;;;2.90;1.83;;;;;;;29.83;32.93;101979.75;5044283;28;20482;-35
2022/07/23 09:07:13;;;;;;;4.37;1.60;;;;;;;28.96;34.57;101969.66;5043607;28;20412;-38
2022/07/23 09:09:39;;;;;;;5.77;1.53;;;;;;;28.17;35.37;101969.06;5027028;28;20109;-35
2022/07/23 09:12:06;;;;;;;3.20;1.65;;;;;;;27.55;37.08;101964.38;5026610;28;20387;-36
2022/07/23 09:14:41;;;;;;;2.22;1.30;;;;;;;27.77;37.25;101973.28;5043679;28;20036;-36
2022/07/23 09:17:15;;;;;;;4.80;1.52;;;;;;;27.88;36.79;101960.38;5043879;28;20021;-35
2022/07/23 09:19:41;;;;;;;3.78;1.33;;;;;;;29.78;33.54;101974.22;5043984;28;20029;-37
2022/07/23 09:22:24;;;;;;;4.97;1.55;;;;;;;30.51;32.64;101967.97;5043788;28;20044;-37
2022/07/23 09:25:22;;;;;;;2.15;1.23;;;;;;;30.49;32.84;101968.28;5043300;28;20037;-38
2022/07/23 09:27:56;;;;;;;6.05;1.70;;;;;;;30.33;33.46;101970.34;4999428;28;20041;-35
2022/07/23 09:30:23;;;;;;;6.03;1.77;;;;;;;30.81;31.61;101973.31;5042877;28;20025;-34
2022/07/23 09:33:08;;;;;;;5.68;1.60;;;;;;;29.89;32.69;101960.03;5043202;28;20036;-36
2022/07/23 09:35:54;;;;;;;13.93;2.08;;;;;;;29.00;34.44;101968.00;5042829;28;20053;-38
2022/07/23 09:38:22;;;;;;;6.43;1.80;;;;;;;28.72;34.94;101963.84;5042994;28;20045;-35
2022/07/23 09:41:08;;;;;;;5.47;1.52;;;;;;;29.80;33.29;101961.72;5042595;28;20400;-37
2022/07/23 09:43:33;;;;;;;10.98;2.17;;;;;;;29.85;32.35;101966.41;5041899;28;20037;-36
2022/07/23 09:46:19;;;;;;;3.33;1.55;;;;;;;30.09;33.56;101970.16;5042020;28;20025;-36
2022/07/23 09:48:45;;;;;;;4.90;1.85;;;;;;;28.89;34.92;101969.13;5025139;28;20025;-35
2022/07/23 09:51:10;;;;;;;6.53;2.15;;;;;;;27.63;37.24;101958.31;5025075;28;20031;-38
2022/07/23 09:53:35;;;;;;;5.57;1.60;;;;;;;28.61;36.47;101965.78;5023294;28;20022;-39
2022/07/23 09:56:01;;;;;;;5.13;2.00;;;;;;;29.56;34.13;101971.78;5041526;28;20125;-38
2022/07/23 09:58:27;;;;;;;4.03;1.60;;;;;;;29.72;34.61;101968.69;5024073;28;20370;-36
2022/07/23 10:00:53;;;;;;;5.70;1.65;;;;;;;29.69;33.58;101976.75;5040341;28;20057;-36
2022/07/23 10:03:19;;;;;;;3.83;1.80;;;;;;;28.94;34.89;101971.91;5007402;28;20030;-36
2022/07/23 10:05:45;;;;;;;3.85;2.13;;;;;;;28.85;34.94;101977.16;5041528;28;20126;-37
2022/07/23 10:08:16;;;;;;;6.10;2.10;;;;;;;27.51;37.96;101974.28;5024113;28;20139;-36
2022/07/23 10:10:42;;;;;;;5.93;2.10;;;;;;;27.35;37.90;101967.84;5008066;28;20505;-37
2022/07/23 10:15:52;;;;;;;6.72;2.08;;;;;;;27.97;37.38;101969.81;5039464;28;20036;-35
2022/07/23 10:18:17;;;;;;;3.15;2.08;;;;;;;28.08;37.30;101970.69;5041959;28;20089;-38
2022/07/23 10:20:43;;;;;;;5.45;1.88;;;;;;;29.03;36.29;101970.22;5041591;28;20028;-36
2022/07/23 10:23:21;;;;;;;5.38;2.00;;;;;;;28.72;35.54;101971.34;5023708;28;20079;-37
2022/07/23 10:26:09;;;;;;;4.13;1.77;;;;;;;29.47;34.96;101964.06;5022619;28;20480;-35
2022/07/23 10:28:59;;;;;;;23.42;2.30;;;;;;;29.29;34.38;101962.72;5042054;28;20021;-35
2022/07/23 10:31:37;;;;;;;4.90;1.92;;;;;;;28.54;35.16;101973.56;5042019;28;20526;-37
2022/07/23 10:34:30;;;;;;;5.82;2.15;;;;;;;27.81;36.40;101965.34;5042110;28;20109;-38
2022/07/23 10:37:00;;;;;;;4.80;2.40;;;;;;;27.49;36.56;101970.94;5041368;28;20118;-36
2022/07/23 10:39:31;;;;;;;8.27;2.15;;;;;;;27.86;36.20;101958.97;5023419;28;20132;-36
2022/07/23 10:42:16;;;;;;;6.80;2.10;;;;;;;28.76;34.60;101955.84;5006848;28;20026;-36
2022/07/23 10:44:47;;;;;;;7.32;1.75;;;;;;;29.27;34.51;101953.00;5039994;28;20472;-35
2022/07/23 10:49:46;;;;;;;6.38;1.90;;;;;;;28.81;35.31;101956.66;5040769;28;20120;-35
2022/07/23 10:52:14;;;;;;;6.03;2.40;;;;;;;28.52;35.26;101953.63;5023893;28;20043;-36
2022/07/23 10:54:51;;;;;;;6.63;2.20;;;;;;;28.35;36.31;101958.53;5040791;28;20036;-37
2022/07/23 10:57:19;;;;;;;4.03;2.30;;;;;;;28.16;36.54;101944.41;5040763;28;20033;-36
2022/07/23 11:00:09;;;;;;;13.25;2.58;;;;;;;27.93;37.11;101954.03;5039355;28;20036;-39
2022/07/23 11:02:36;;;;;;;6.90;2.30;;;;;;;29.22;34.69;101951.06;5036893;28;20026;-39
2022/07/23 11:05:14;;;;;;;4.03;2.38;;;;;;;28.97;34.61;101956.66;5039410;28;20056;-38
2022/07/23 11:08:05;;;;;;;4.93;2.20;;;;;;;29.49;34.47;101961.84;5038717;28;20028;-38
2022/07/23 11:10:41;;;;;;;9.07;2.58;;;;;;;29.60;35.06;101967.34;5038330;28;20040;-37
2022/07/23 11:13:22;;;;;;;7.53;2.10;;;;;;;29.45;35.24;101955.19;5037940;28;20469;-38
2022/07/23 11:16:10;;;;;;;11.35;2.40;;;;;;;28.47;36.82;101950.84;5037178;28;20094;-37
2022/07/23 11:18:41;;;;;;;5.93;2.20;;;;;;;28.16;38.84;101944.41;5036958;28;20022;-37
2022/07/23 11:21:23;;;;;;;7.32;2.35;;;;;;;28.13;38.59;101947.72;5037102;28;20032;-38
2022/07/23 11:23:57;;;;;;;8.10;2.22;;;;;;;28.25;38.04;101942.75;5035968;28;20029;-38
2022/07/23 11:26:38;;;;;;;7.07;1.98;;;;;;;27.90;38.15;101951.81;5035321;28;20085;-38
2022/07/23 11:29:25;;;;;;;9.85;2.67;;;;;;;27.57;39.66;101932.56;5037327;28;20097;-37